Morgenster — PHMY — position and weather

sailwx.info

Track history (hours):
 
Tides and Currents Weather Stations Pressure Air Temp Water Temp Dewpoint Dewpoint Depression Visibility Wind Speed Wind Dir Waves Ship Positions

Morgenster

Last reported at 2018-Oct-20 15:19 UTC. Time now 2018-Dec-12 04:58 UTC.
Position N 28°14' W 016°18'.
Warning: this ship's position is 52 days out of date.

Length 38 m; draft 2.4 m.

Type: Sailing vessel. MMSI: 245136000.

Date/timePositionNaut miles runAvg speedWind from/ knotsBaromVisibWave heightAir tempDewpointWater temp
2018-Oct-20 15:19N 28°14' W 016°18'1 4.5
2018-Oct-20 15:00N 28°15' W 016°18'4 4.3
2018-Oct-20 14:03N 28°19' W 016°17'0 5.6
2018-Oct-20 14:00N 28°20' W 016°17'3 5.9
2018-Oct-20 13:30N 28°23' W 016°16'3 5.7
2018-Oct-20 13:03N 28°25' W 016°15'0 5.6
2018-Oct-20 13:00N 28°25' W 016°15'3 5.0
2018-Oct-20 12:30N 28°28' W 016°15'0 0.1
2018-Oct-20 12:01N 28°28' W 016°15'0 0.0
2018-Oct-20 11:58N 28°28' W 016°15'0 0.0
2018-Oct-20 11:28N 28°28' W 016°15'0 0.0
2018-Oct-20 11:01N 28°28' W 016°15'0 0.0
2018-Oct-20 10:58N 28°28' W 016°15'0 0.0
2018-Oct-20 10:28N 28°28' W 016°15'0 0.0
2018-Oct-20 10:01N 28°28' W 016°15'0 0.1
2018-Oct-20 09:58N 28°28' W 016°15'0 0.0
2018-Oct-20 09:28N 28°28' W 016°15'0 0.0
2018-Oct-20 09:01N 28°28' W 016°15'0 0.0
2018-Oct-20 08:58N 28°28' W 016°15'0 0.0
2018-Oct-20 08:28N 28°28' W 016°15'0 0.0
2018-Oct-20 08:01N 28°28' W 016°15'0 0.0
2018-Oct-20 07:58N 28°28' W 016°15'0 0.0
2018-Oct-20 07:28N 28°28' W 016°15'0 0.0
2018-Oct-20 07:01N 28°28' W 016°15'0 0.0
2018-Oct-20 06:58N 28°28' W 016°15'0 0.0
2018-Oct-20 06:28N 28°28' W 016°15'0 0.0
2018-Oct-20 06:01N 28°28' W 016°15'0 0.0
2018-Oct-20 05:58N 28°28' W 016°15'0 0.0
2018-Oct-20 05:28N 28°28' W 016°15'0 0.0
2018-Oct-20 05:01N 28°28' W 016°15'0 0.0
2018-Oct-20 04:58N 28°28' W 016°15'0 0.0
2018-Oct-20 04:28N 28°28' W 016°15'0 0.0
2018-Oct-20 04:01N 28°28' W 016°15'0 0.0
2018-Oct-20 03:58N 28°28' W 016°15'0 0.0
2018-Oct-20 03:28N 28°28' W 016°15'0 0.0
2018-Oct-20 03:01N 28°28' W 016°15'0 0.0
2018-Oct-20 02:58N 28°28' W 016°15'0 0.0
2018-Oct-20 02:28N 28°28' W 016°15'0 0.0
2018-Oct-20 02:01N 28°28' W 016°15'0 0.0
2018-Oct-20 01:58N 28°28' W 016°15'0 0.0
2018-Oct-20 01:28N 28°28' W 016°15'0 0.0
2018-Oct-20 01:01N 28°28' W 016°15'0 0.0
2018-Oct-20 00:58N 28°28' W 016°15'0 0.0
2018-Oct-20 00:28N 28°28' W 016°15'0 0.0
2018-Oct-20 00:01N 28°28' W 016°15'0 0.0
2018-Oct-19 23:58N 28°28' W 016°15'0 0.0
2018-Oct-19 23:28N 28°28' W 016°15'0 0.0
2018-Oct-19 23:01N 28°28' W 016°15'0 0.0
2018-Oct-19 22:58N 28°28' W 016°15'0 0.0
2018-Oct-19 22:28N 28°28' W 016°15'0 0.0
2018-Oct-19 22:01N 28°28' W 016°15'0 0.0
2018-Oct-19 21:58N 28°28' W 016°15'0 0.0
2018-Oct-19 21:28N 28°28' W 016°15'0 0.0
2018-Oct-19 21:01N 28°28' W 016°15'0 0.0
2018-Oct-19 20:58N 28°28' W 016°15'0 0.0
2018-Oct-19 20:28N 28°28' W 016°15'0 0.0
2018-Oct-19 20:01N 28°28' W 016°15'0 0.0
2018-Oct-19 19:58N 28°28' W 016°15'0 0.0
2018-Oct-19 19:28N 28°28' W 016°15'0 0.0
2018-Oct-19 19:01N 28°28' W 016°15'0 0.0
2018-Oct-19 18:58N 28°28' W 016°15'0 0.0
2018-Oct-19 18:28N 28°28' W 016°15'0 0.0
2018-Oct-19 18:01N 28°28' W 016°15'0 0.0
2018-Oct-19 17:58N 28°28' W 016°15'0 0.0
2018-Oct-19 17:28N 28°28' W 016°15'0 0.0
2018-Oct-19 17:03N 28°28' W 016°15'0 0.0
2018-Oct-19 17:00N 28°28' W 016°15'1 2.2
2018-Oct-19 16:30N 28°27' W 016°15'3 6.1
2018-Oct-19 16:03N 28°24' W 016°13'0 6.3
2018-Oct-19 16:00N 28°24' W 016°13'3 5.7
2018-Oct-19 15:30N 28°22' W 016°10'2 3.9
2018-Oct-19 15:03N 28°20' W 016°11'0 5.5
2018-Oct-19 14:59N 28°20' W 016°12'3 5.5
2018-Oct-19 14:30N 28°19' W 016°14'5 5.4
2018-Oct-19 13:30N 28°18' W 016°20'2 4.3
2018-Oct-19 13:01N 28°15' W 016°20'  
2018-Oct-15 16:32N 28°50' W 016°31'28 4.7
2018-Oct-15 10:31N 28°34' W 016°04'0 6.2
2018-Oct-15 10:29N 28°34' W 016°04'3 6.1
2018-Oct-15 10:02N 28°32' W 016°06'0 6.9
2018-Oct-15 09:59N 28°31' W 016°06'3 6.2
2018-Oct-15 09:30N 28°30' W 016°09'2 4.9
2018-Oct-15 09:03N 28°29' W 016°11'0 4.1
2018-Oct-15 09:00N 28°29' W 016°11'2 4.1
2018-Oct-15 08:30N 28°28' W 016°13'1 2.4
2018-Oct-15 08:03N 28°28' W 016°15'0 0.1
2018-Oct-15 07:57N 28°28' W 016°15'0 0.0
2018-Oct-15 07:30N 28°28' W 016°15'0 0.0
2018-Oct-15 07:03N 28°28' W 016°15'0 0.0
2018-Oct-15 07:00N 28°28' W 016°15'0 0.0
2018-Oct-15 06:30N 28°28' W 016°15'0 0.0
2018-Oct-15 06:03N 28°28' W 016°15'0 0.0
2018-Oct-15 06:00N 28°28' W 016°15'0 0.0
2018-Oct-15 05:30N 28°28' W 016°15'0 0.0
2018-Oct-15 05:03N 28°28' W 016°15'0 0.0
2018-Oct-15 05:00N 28°28' W 016°15'0 0.0
2018-Oct-15 04:30N 28°28' W 016°15'0 0.0
2018-Oct-15 04:03N 28°28' W 016°15'0 0.0
2018-Oct-15 04:00N 28°28' W 016°15'0 0.0
2018-Oct-15 03:30N 28°28' W 016°15'0 0.0
2018-Oct-15 03:03N 28°28' W 016°15'0 0.2
2018-Oct-15 03:00N 28°28' W 016°15'0 0.0
2018-Oct-15 02:30N 28°28' W 016°15'0 0.0
2018-Oct-15 02:03N 28°28' W 016°15'0 0.0
2018-Oct-15 02:00N 28°28' W 016°15'0 0.0
2018-Oct-15 01:30N 28°28' W 016°15'0 0.0
2018-Oct-15 01:03N 28°28' W 016°15'0 0.0
2018-Oct-15 01:00N 28°28' W 016°15'0 0.0
2018-Oct-15 00:30N 28°28' W 016°15'0 0.0
2018-Oct-15 00:03N 28°28' W 016°15'0 0.0
2018-Oct-15 00:00N 28°28' W 016°15'0 0.0
2018-Oct-14 23:30N 28°28' W 016°15'0 0.0
2018-Oct-14 23:00N 28°28' W 016°15'0 0.0
2018-Oct-14 22:30N 28°28' W 016°15'0 0.0
2018-Oct-14 22:03N 28°28' W 016°15'0 0.0
2018-Oct-14 22:00N 28°28' W 016°15'0 0.0
2018-Oct-14 21:30N 28°28' W 016°15'0 0.0
2018-Oct-14 21:03N 28°28' W 016°15'0 0.0
2018-Oct-14 21:00N 28°28' W 016°15'0 0.0
2018-Oct-14 20:30N 28°28' W 016°15'0 0.0
2018-Oct-14 20:03N 28°28' W 016°15'0 0.0
2018-Oct-14 20:00N 28°28' W 016°15'0 0.0
2018-Oct-14 19:30N 28°28' W 016°15'0 0.0
2018-Oct-14 19:03N 28°28' W 016°15'0 0.0
2018-Oct-14 19:00N 28°28' W 016°15'0 0.0
2018-Oct-14 18:30N 28°28' W 016°15'0 0.0
2018-Oct-14 18:03N 28°28' W 016°15'0 0.0
2018-Oct-14 18:00N 28°28' W 016°15'0 0.0
2018-Oct-14 17:30N 28°28' W 016°15'0 0.0
2018-Oct-14 17:03N 28°28' W 016°15'0 0.0
2018-Oct-14 17:00N 28°28' W 016°15'0 0.0
2018-Oct-14 16:30N 28°28' W 016°15'0 0.0
2018-Oct-14 16:03N 28°28' W 016°15'0 0.0
2018-Oct-14 16:00N 28°28' W 016°15'0 0.0
2018-Oct-14 15:30N 28°28' W 016°15'0 0.0
2018-Oct-14 15:03N 28°28' W 016°15'0 0.0
2018-Oct-14 15:00N 28°28' W 016°15'0 0.0
2018-Oct-14 14:03N 28°28' W 016°15'0 0.0
2018-Oct-14 13:57N 28°28' W 016°15'0 0.0
2018-Oct-14 13:30N 28°28' W 016°15'0 0.0
2018-Oct-14 13:03N 28°28' W 016°15'0 0.0
2018-Oct-14 13:00N 28°28' W 016°15'0 0.0
2018-Oct-14 12:30N 28°28' W 016°15'0 0.0
2018-Oct-14 12:00N 28°28' W 016°15'0 0.0
2018-Oct-14 11:30N 28°28' W 016°15'0 0.0
2018-Oct-14 11:03N 28°28' W 016°15'0 0.0
2018-Oct-14 11:00N 28°28' W 016°15'0 0.0
2018-Oct-14 10:30N 28°28' W 016°15'0 0.0
2018-Oct-14 10:03N 28°28' W 016°15'0 0.0
2018-Oct-14 10:00N 28°28' W 016°15'0 0.0
2018-Oct-14 09:30N 28°28' W 016°15'0 0.0
2018-Oct-14 09:03N 28°28' W 016°15'0 0.0
2018-Oct-14 09:00N 28°28' W 016°15'0 0.0
2018-Oct-14 08:30N 28°28' W 016°15'0 0.0
2018-Oct-14 08:03N 28°28' W 016°15'0 0.0
2018-Oct-14 07:30N 28°28' W 016°15'0 0.0
2018-Oct-14 07:03N 28°28' W 016°15'0 0.0
2018-Oct-14 07:00N 28°28' W 016°15'0 0.0
2018-Oct-14 06:30N 28°28' W 016°15'0 0.0
2018-Oct-14 06:03N 28°28' W 016°15'0 0.0
2018-Oct-14 06:00N 28°28' W 016°15'0 0.0
2018-Oct-14 05:30N 28°28' W 016°15'0 0.0
2018-Oct-14 05:03N 28°28' W 016°15'0 0.0
2018-Oct-14 05:00N 28°28' W 016°15'0 0.0
2018-Oct-14 04:30N 28°28' W 016°15'0 0.0
2018-Oct-14 04:03N 28°28' W 016°15'0 0.0
2018-Oct-14 04:00N 28°28' W 016°15'0 0.0
2018-Oct-14 03:30N 28°28' W 016°15'0 0.0
2018-Oct-14 03:03N 28°28' W 016°15'0 0.0
2018-Oct-14 03:00N 28°28' W 016°15'0 0.0
2018-Oct-14 02:30N 28°28' W 016°15'0 0.0
2018-Oct-14 02:03N 28°28' W 016°15'0 0.0
2018-Oct-14 02:00N 28°28' W 016°15'0 0.0
2018-Oct-14 01:30N 28°28' W 016°15'0 0.0
2018-Oct-14 01:03N 28°28' W 016°15'0 0.0
2018-Oct-14 01:00N 28°28' W 016°15'0 0.0
2018-Oct-14 00:30N 28°28' W 016°15'0 0.0
2018-Oct-14 00:03N 28°28' W 016°15'0 0.0
2018-Oct-14 00:00N 28°28' W 016°15'0 0.0
2018-Oct-13 23:30N 28°28' W 016°15'0 0.0
2018-Oct-13 23:03N 28°28' W 016°15'0 0.0
2018-Oct-13 23:00N 28°28' W 016°15'0 0.0
2018-Oct-13 22:30N 28°28' W 016°15'0 0.0
2018-Oct-13 22:03N 28°28' W 016°15'0 0.0
2018-Oct-13 22:00N 28°28' W 016°15'0 0.0
2018-Oct-13 21:30N 28°28' W 016°15'0 0.0
2018-Oct-13 21:03N 28°28' W 016°15'0 0.0
2018-Oct-13 21:00N 28°28' W 016°15'0 0.0
2018-Oct-13 20:30N 28°28' W 016°15'0 0.0
2018-Oct-13 20:03N 28°28' W 016°15'0 0.0
2018-Oct-13 20:00N 28°28' W 016°15'0 0.0
2018-Oct-13 19:30N 28°28' W 016°15'0 0.0
2018-Oct-13 19:03N 28°28' W 016°15'0 0.2
2018-Oct-13 19:00N 28°28' W 016°15'0 0.0
2018-Oct-13 18:30N 28°28' W 016°15'0 0.0
2018-Oct-13 18:03N 28°28' W 016°15'0 0.0
2018-Oct-13 18:00N 28°28' W 016°15'0 0.0
2018-Oct-13 17:30N 28°28' W 016°15'0 0.0
2018-Oct-13 17:03N 28°28' W 016°15'0 0.0
2018-Oct-13 17:00N 28°28' W 016°15'0 0.0
2018-Oct-13 16:30N 28°28' W 016°15'0 0.0
2018-Oct-13 16:03N 28°28' W 016°15'0 0.0
2018-Oct-13 16:00N 28°28' W 016°15'0 0.0
2018-Oct-13 15:30N 28°28' W 016°15'0 0.0
2018-Oct-13 15:03N 28°28' W 016°15'0 0.0
2018-Oct-13 15:00N 28°28' W 016°15'0 0.0
2018-Oct-13 14:30N 28°28' W 016°15'0 0.0
2018-Oct-13 14:00N 28°28' W 016°15'0 0.0
2018-Oct-13 13:30N 28°28' W 016°15'0 0.0
2018-Oct-13 13:03N 28°28' W 016°15'0 0.0
2018-Oct-13 13:00N 28°28' W 016°15'0 0.0
2018-Oct-13 12:30N 28°28' W 016°15'0 0.0
2018-Oct-13 12:03N 28°28' W 016°15'0 0.0
2018-Oct-13 12:00N 28°28' W 016°15'0 0.0
2018-Oct-13 11:30N 28°28' W 016°15'0 0.0
2018-Oct-13 11:03N 28°28' W 016°15'0 0.0
2018-Oct-13 11:00N 28°28' W 016°15'0 0.0
2018-Oct-13 10:30N 28°28' W 016°15'0 0.0
2018-Oct-13 10:03N 28°28' W 016°15'0 0.0
2018-Oct-13 10:00N 28°28' W 016°15'0 0.0
2018-Oct-13 09:30N 28°28' W 016°15'0 0.0
2018-Oct-13 09:03N 28°28' W 016°15'0 0.0
2018-Oct-13 09:00N 28°28' W 016°15'0 0.0
2018-Oct-13 08:30N 28°28' W 016°15'0 0.0
2018-Oct-13 08:03N 28°28' W 016°15'0 0.0
2018-Oct-13 08:00N 28°28' W 016°15'0 0.0
2018-Oct-13 07:30N 28°28' W 016°15'0 0.0
2018-Oct-13 07:03N 28°28' W 016°15'0 0.0
2018-Oct-13 07:00N 28°28' W 016°15'0 0.0
2018-Oct-13 06:27N 28°28' W 016°15'0 0.0
2018-Oct-13 06:03N 28°28' W 016°15'0 0.0
2018-Oct-13 06:00N 28°28' W 016°15'0 0.0
2018-Oct-13 05:30N 28°28' W 016°15'0 0.0
2018-Oct-13 05:03N 28°28' W 016°15'0 0.0
2018-Oct-13 05:00N 28°28' W 016°15'0 0.0
2018-Oct-13 04:30N 28°28' W 016°15'0 0.0
2018-Oct-13 04:03N 28°28' W 016°15'0 0.0
2018-Oct-13 04:00N 28°28' W 016°15'0 0.0
2018-Oct-13 03:30N 28°28' W 016°15'0 0.0
2018-Oct-13 03:03N 28°28' W 016°15'0 0.2
2018-Oct-13 03:00N 28°28' W 016°15'0 0.0
2018-Oct-13 02:30N 28°28' W 016°15'0 0.0
2018-Oct-13 02:03N 28°28' W 016°15'0 0.0
2018-Oct-13 02:00N 28°28' W 016°15'0 0.0
2018-Oct-13 01:30N 28°28' W 016°15'0 0.0
2018-Oct-13 01:03N 28°28' W 016°15'0 0.0
2018-Oct-13 01:00N 28°28' W 016°15'0 0.0
2018-Oct-13 00:30N 28°28' W 016°15'0 0.0
2018-Oct-13 00:03N 28°28' W 016°15'0 0.0
2018-Oct-13 00:00N 28°28' W 016°15'0 0.0
2018-Oct-12 23:30N 28°28' W 016°15'0 0.0
2018-Oct-12 23:03N 28°28' W 016°15'0 0.0
2018-Oct-12 23:00N 28°28' W 016°15'0 0.0
2018-Oct-12 22:30N 28°28' W 016°15'0 0.0
2018-Oct-12 22:03N 28°28' W 016°15'0 0.0
2018-Oct-12 22:00N 28°28' W 016°15'0 0.0
2018-Oct-12 21:30N 28°28' W 016°15'0 0.0
2018-Oct-12 21:03N 28°28' W 016°15'0 0.2
2018-Oct-12 21:00N 28°28' W 016°15'0 0.0
2018-Oct-12 20:30N 28°28' W 016°15'0 0.0
2018-Oct-12 20:03N 28°28' W 016°15'0 0.0
2018-Oct-12 20:00N 28°28' W 016°15'0 0.0
2018-Oct-12 19:30N 28°28' W 016°15'0 0.0
2018-Oct-12 19:03N 28°28' W 016°15'0 0.0
2018-Oct-12 19:00N 28°28' W 016°15'0 0.0
2018-Oct-12 18:30N 28°28' W 016°15'0 0.0
2018-Oct-12 18:03N 28°28' W 016°15'0 0.0
2018-Oct-12 18:00N 28°28' W 016°15'0 0.0
2018-Oct-12 17:30N 28°28' W 016°15'0 0.0
2018-Oct-12 17:03N 28°28' W 016°15'0 0.0
2018-Oct-12 17:00N 28°28' W 016°15'0 0.0
2018-Oct-12 16:30N 28°28' W 016°15'0 0.0
2018-Oct-12 16:03N 28°28' W 016°15'0 0.0
2018-Oct-12 16:00N 28°28' W 016°15'0 0.0
2018-Oct-12 15:30N 28°28' W 016°15'0 0.0
2018-Oct-12 15:03N 28°28' W 016°15'0 0.0
2018-Oct-12 15:00N 28°28' W 016°15'0 0.0
2018-Oct-12 14:03N 28°28' W 016°15'0 0.0
2018-Oct-12 14:00N 28°28' W 016°15'0 0.0
2018-Oct-12 13:30N 28°28' W 016°15'0 0.0
2018-Oct-12 13:03N 28°28' W 016°15'0 0.0
2018-Oct-12 13:00N 28°28' W 016°15'0 0.0
2018-Oct-12 12:30N 28°28' W 016°15'0 0.0
2018-Oct-12 12:03N 28°28' W 016°15'0 0.0
2018-Oct-12 12:00N 28°28' W 016°15'0 0.0
2018-Oct-12 11:30N 28°28' W 016°15'0 0.0
2018-Oct-12 11:03N 28°28' W 016°15'0 0.0
2018-Oct-12 11:00N 28°28' W 016°15'0 0.0
2018-Oct-12 10:30N 28°28' W 016°15'0 0.0
2018-Oct-12 10:03N 28°28' W 016°15'0 0.0
2018-Oct-12 10:00N 28°28' W 016°15'0 0.0
2018-Oct-12 09:30N 28°28' W 016°15'0 0.0
2018-Oct-12 09:03N 28°28' W 016°15'0 0.0
2018-Oct-12 09:00N 28°28' W 016°15'0 0.0
2018-Oct-12 08:30N 28°28' W 016°15'0 0.0
2018-Oct-12 08:03N 28°28' W 016°15'0 0.0
2018-Oct-12 08:00N 28°28' W 016°15'0 0.0
2018-Oct-12 07:30N 28°28' W 016°15'0 0.0
2018-Oct-12 07:03N 28°28' W 016°15'0 0.0
2018-Oct-12 07:00N 28°28' W 016°15'0 0.0
2018-Oct-12 06:30N 28°28' W 016°15'0 0.0
2018-Oct-12 06:03N 28°28' W 016°15'0 0.0
2018-Oct-12 06:00N 28°28' W 016°15'0 0.0
2018-Oct-12 05:30N 28°28' W 016°15'0 0.0
2018-Oct-12 05:03N 28°28' W 016°15'0 0.3
2018-Oct-12 05:00N 28°28' W 016°15'0 0.0
2018-Oct-12 04:30N 28°28' W 016°15'0 0.0
2018-Oct-12 04:03N 28°28' W 016°15'0 0.0
2018-Oct-12 04:00N 28°28' W 016°15'0 0.0
2018-Oct-12 03:30N 28°28' W 016°15'0 0.0
2018-Oct-12 03:03N 28°28' W 016°15'0 0.0
2018-Oct-12 03:00N 28°28' W 016°15'0 0.0
2018-Oct-12 02:30N 28°28' W 016°15'0 0.0
2018-Oct-12 02:00N 28°28' W 016°15'0 0.0
2018-Oct-12 01:30N 28°28' W 016°15'0 0.0
2018-Oct-12 01:00N 28°28' W 016°15'0 0.0
2018-Oct-12 00:30N 28°28' W 016°15'0 0.0
2018-Oct-12 00:03N 28°28' W 016°15'0 0.0
2018-Oct-12 00:00N 28°28' W 016°15'0 0.0
2018-Oct-11 23:30N 28°28' W 016°15'0 0.0
2018-Oct-11 23:03N 28°28' W 016°15'0 0.0
2018-Oct-11 23:00N 28°28' W 016°15'0 0.0
2018-Oct-11 22:30N 28°28' W 016°15'0 0.0
2018-Oct-11 22:03N 28°28' W 016°15'0 0.0
2018-Oct-11 22:00N 28°28' W 016°15'0 0.0
2018-Oct-11 21:30N 28°28' W 016°15'0 0.0
2018-Oct-11 21:03N 28°28' W 016°15'0 0.0
2018-Oct-11 21:00N 28°28' W 016°15'0 0.0
2018-Oct-11 20:30N 28°28' W 016°15'0 0.0
2018-Oct-11 20:03N 28°28' W 016°15'0 0.0
2018-Oct-11 20:00N 28°28' W 016°15'0 0.0
2018-Oct-11 19:30N 28°28' W 016°15'0 0.0
2018-Oct-11 19:03N 28°28' W 016°15'0 0.0
2018-Oct-11 19:00N 28°28' W 016°15'0 0.0
2018-Oct-11 18:30N 28°28' W 016°15'0 0.0
2018-Oct-11 18:03N 28°28' W 016°15'0 0.0
2018-Oct-11 18:00N 28°28' W 016°15'0 0.0
2018-Oct-11 17:30N 28°28' W 016°15'0 0.0
2018-Oct-11 17:03N 28°28' W 016°15'0 0.0
2018-Oct-11 17:00N 28°28' W 016°15'0 0.0
2018-Oct-11 16:30N 28°28' W 016°15'0 0.0
2018-Oct-11 16:03N 28°28' W 016°15'0 0.0
2018-Oct-11 16:00N 28°28' W 016°15'0 0.0
2018-Oct-11 15:27N 28°28' W 016°15'0 0.0
2018-Oct-11 15:03N 28°28' W 016°15'0 0.0
2018-Oct-11 15:00N 28°28' W 016°15'0 0.0
2018-Oct-11 14:30N 28°28' W 016°15'0 0.0
2018-Oct-11 13:30N 28°28' W 016°15'0 0.0
2018-Oct-11 13:03N 28°28' W 016°15'0 0.0
2018-Oct-11 13:00N 28°28' W 016°15'0 0.0
2018-Oct-11 12:30N 28°28' W 016°15'0 0.0
2018-Oct-11 12:03N 28°28' W 016°15'0 0.0
2018-Oct-11 12:00N 28°28' W 016°15'0 0.0
2018-Oct-11 11:30N 28°28' W 016°15'0 0.0
2018-Oct-11 11:03N 28°28' W 016°15'0 0.0
2018-Oct-11 11:00N 28°28' W 016°15'0 0.0
2018-Oct-11 10:30N 28°28' W 016°15'0 0.0
2018-Oct-11 10:03N 28°28' W 016°15'0 0.0
2018-Oct-11 10:00N 28°28' W 016°15'0 0.0
2018-Oct-11 09:27N 28°28' W 016°15'0 0.0
2018-Oct-11 09:03N 28°28' W 016°15'0 0.0
2018-Oct-11 09:00N 28°28' W 016°15'0 0.0
2018-Oct-11 08:30N 28°28' W 016°15'0 0.0
2018-Oct-11 08:03N 28°28' W 016°15'0 0.0
2018-Oct-11 08:00N 28°28' W 016°15'0 0.0
2018-Oct-11 07:30N 28°28' W 016°15'0 0.0
2018-Oct-11 07:03N 28°28' W 016°15'0 0.0
2018-Oct-11 07:00N 28°28' W 016°15'0 0.0
2018-Oct-11 06:30N 28°28' W 016°15'0 0.0
2018-Oct-11 06:03N 28°28' W 016°15'0 0.0
2018-Oct-11 06:00N 28°28' W 016°15'0 0.0
2018-Oct-11 05:30N 28°28' W 016°15'0 0.0
2018-Oct-11 05:03N 28°28' W 016°15'0 0.2
2018-Oct-11 05:00N 28°28' W 016°15'0 0.0
2018-Oct-11 04:30N 28°28' W 016°15'0 0.0
2018-Oct-11 04:03N 28°28' W 016°15'0 0.0
2018-Oct-11 04:00N 28°28' W 016°15'0 0.0
2018-Oct-11 03:30N 28°28' W 016°15'0 0.0
2018-Oct-11 03:03N 28°28' W 016°15'0 0.2
2018-Oct-11 03:00N 28°28' W 016°15'0 0.0
2018-Oct-11 02:30N 28°28' W 016°15'0 0.0
2018-Oct-11 02:03N 28°28' W 016°15'0 0.0
2018-Oct-11 02:00N 28°28' W 016°15'0 0.0
2018-Oct-11 01:30N 28°28' W 016°15'0 0.0
2018-Oct-11 01:03N 28°28' W 016°15'0 0.0
2018-Oct-11 01:00N 28°28' W 016°15'0 0.0
2018-Oct-11 00:30N 28°28' W 016°15'0 0.0
2018-Oct-11 00:03N 28°28' W 016°15'0 0.0
2018-Oct-11 00:00N 28°28' W 016°15'0 0.0
2018-Oct-10 23:30N 28°28' W 016°15'0 0.0
2018-Oct-10 23:03N 28°28' W 016°15'0 0.0
2018-Oct-10 23:00N 28°28' W 016°15'0 0.0
2018-Oct-10 22:30N 28°28' W 016°15'0 0.0
2018-Oct-10 22:03N 28°28' W 016°15'0 0.0
2018-Oct-10 22:00N 28°28' W 016°15'0 0.0
2018-Oct-10 21:30N 28°28' W 016°15'0 0.0
2018-Oct-10 21:03N 28°28' W 016°15'0 0.0
2018-Oct-10 21:00N 28°28' W 016°15'0 0.0
2018-Oct-10 20:30N 28°28' W 016°15'0 0.0
2018-Oct-10 20:03N 28°28' W 016°15'0 0.0
2018-Oct-10 20:00N 28°28' W 016°15'0 0.0
2018-Oct-10 19:30N 28°28' W 016°15'0 0.0
2018-Oct-10 19:03N 28°28' W 016°15'0 0.2
2018-Oct-10 19:00N 28°28' W 016°15'0 0.0
2018-Oct-10 18:30N 28°28' W 016°15'0 0.0
2018-Oct-10 18:03N 28°28' W 016°15'0 0.0
2018-Oct-10 18:00N 28°28' W 016°15'0 0.0
2018-Oct-10 17:30N 28°28' W 016°15'0 0.0
2018-Oct-10 17:03N 28°28' W 016°15'0 0.0
2018-Oct-10 17:00N 28°28' W 016°15'0 0.0
2018-Oct-10 16:30N 28°28' W 016°15'0 0.0
2018-Oct-10 16:03N 28°28' W 016°15'0 0.0
2018-Oct-10 16:00N 28°28' W 016°15'0 0.0
2018-Oct-10 15:30N 28°28' W 016°15'  
Track history (hours):
 
Tides and Currents Weather Stations Pressure Air Temp Water Temp Dewpoint Dewpoint Depression Visibility Wind Speed Wind Dir Waves Ship Positions

Morgenster

Last reported at 2018-Oct-20 15:19 UTC. Time now 2018-Dec-12 04:58 UTC.
Position N 28°14' W 016°18'.
Warning: this ship's position is 52 days out of date.

Length 38 m; draft 2.4 m.

Type: Sailing vessel. MMSI: 245136000.

Date/timePositionNaut miles runAvg speedWind from/ knotsBaromVisibWave heightAir tempDewpointWater temp
2018-Oct-20 15:19N 28°14' W 016°18'1 4.5
2018-Oct-20 15:00N 28°15' W 016°18'4 4.3
2018-Oct-20 14:03N 28°19' W 016°17'0 5.6
2018-Oct-20 14:00N 28°20' W 016°17'3 5.9
2018-Oct-20 13:30N 28°23' W 016°16'3 5.7
2018-Oct-20 13:03N 28°25' W 016°15'0 5.6
2018-Oct-20 13:00N 28°25' W 016°15'3 5.0
2018-Oct-20 12:30N 28°28' W 016°15'0 0.1
2018-Oct-20 12:01N 28°28' W 016°15'0 0.0
2018-Oct-20 11:58N 28°28' W 016°15'0 0.0
2018-Oct-20 11:28N 28°28' W 016°15'0 0.0
2018-Oct-20 11:01N 28°28' W 016°15'0 0.0
2018-Oct-20 10:58N 28°28' W 016°15'0 0.0
2018-Oct-20 10:28N 28°28' W 016°15'0 0.0
2018-Oct-20 10:01N 28°28' W 016°15'0 0.1
2018-Oct-20 09:58N 28°28' W 016°15'0 0.0
2018-Oct-20 09:28N 28°28' W 016°15'0 0.0
2018-Oct-20 09:01N 28°28' W 016°15'0 0.0
2018-Oct-20 08:58N 28°28' W 016°15'0 0.0
2018-Oct-20 08:28N 28°28' W 016°15'0 0.0
2018-Oct-20 08:01N 28°28' W 016°15'0 0.0
2018-Oct-20 07:58N 28°28' W 016°15'0 0.0
2018-Oct-20 07:28N 28°28' W 016°15'0 0.0
2018-Oct-20 07:01N 28°28' W 016°15'0 0.0
2018-Oct-20 06:58N 28°28' W 016°15'0 0.0
2018-Oct-20 06:28N 28°28' W 016°15'0 0.0
2018-Oct-20 06:01N 28°28' W 016°15'0 0.0
2018-Oct-20 05:58N 28°28' W 016°15'0 0.0
2018-Oct-20 05:28N 28°28' W 016°15'0 0.0
2018-Oct-20 05:01N 28°28' W 016°15'0 0.0
2018-Oct-20 04:58N 28°28' W 016°15'0 0.0
2018-Oct-20 04:28N 28°28' W 016°15'0 0.0
2018-Oct-20 04:01N 28°28' W 016°15'0 0.0
2018-Oct-20 03:58N 28°28' W 016°15'0 0.0
2018-Oct-20 03:28N 28°28' W 016°15'0 0.0
2018-Oct-20 03:01N 28°28' W 016°15'0 0.0
2018-Oct-20 02:58N 28°28' W 016°15'0 0.0
2018-Oct-20 02:28N 28°28' W 016°15'0 0.0
2018-Oct-20 02:01N 28°28' W 016°15'0 0.0
2018-Oct-20 01:58N 28°28' W 016°15'0 0.0
2018-Oct-20 01:28N 28°28' W 016°15'0 0.0
2018-Oct-20 01:01N 28°28' W 016°15'0 0.0
2018-Oct-20 00:58N 28°28' W 016°15'0 0.0
2018-Oct-20 00:28N 28°28' W 016°15'0 0.0
2018-Oct-20 00:01N 28°28' W 016°15'0 0.0
2018-Oct-19 23:58N 28°28' W 016°15'0 0.0
2018-Oct-19 23:28N 28°28' W 016°15'0 0.0
2018-Oct-19 23:01N 28°28' W 016°15'0 0.0
2018-Oct-19 22:58N 28°28' W 016°15'0 0.0
2018-Oct-19 22:28N 28°28' W 016°15'0 0.0
2018-Oct-19 22:01N 28°28' W 016°15'0 0.0
2018-Oct-19 21:58N 28°28' W 016°15'0 0.0
2018-Oct-19 21:28N 28°28' W 016°15'0 0.0
2018-Oct-19 21:01N 28°28' W 016°15'0 0.0
2018-Oct-19 20:58N 28°28' W 016°15'0 0.0
2018-Oct-19 20:28N 28°28' W 016°15'0 0.0
2018-Oct-19 20:01N 28°28' W 016°15'0 0.0
2018-Oct-19 19:58N 28°28' W 016°15'0 0.0
2018-Oct-19 19:28N 28°28' W 016°15'0 0.0
2018-Oct-19 19:01N 28°28' W 016°15'0 0.0
2018-Oct-19 18:58N 28°28' W 016°15'0 0.0
2018-Oct-19 18:28N 28°28' W 016°15'0 0.0
2018-Oct-19 18:01N 28°28' W 016°15'0 0.0
2018-Oct-19 17:58N 28°28' W 016°15'0 0.0
2018-Oct-19 17:28N 28°28' W 016°15'0 0.0
2018-Oct-19 17:03N 28°28' W 016°15'0 0.0
2018-Oct-19 17:00N 28°28' W 016°15'1 2.2
2018-Oct-19 16:30N 28°27' W 016°15'3 6.1
2018-Oct-19 16:03N 28°24' W 016°13'0 6.3
2018-Oct-19 16:00N 28°24' W 016°13'3 5.7
2018-Oct-19 15:30N 28°22' W 016°10'2 3.9
2018-Oct-19 15:03N 28°20' W 016°11'0 5.5
2018-Oct-19 14:59N 28°20' W 016°12'3 5.5
2018-Oct-19 14:30N 28°19' W 016°14'5 5.4
2018-Oct-19 13:30N 28°18' W 016°20'2 4.3
2018-Oct-19 13:01N 28°15' W 016°20'  
2018-Oct-15 16:32N 28°50' W 016°31'28 4.7
2018-Oct-15 10:31N 28°34' W 016°04'0 6.2
2018-Oct-15 10:29N 28°34' W 016°04'3 6.1
2018-Oct-15 10:02N 28°32' W 016°06'0 6.9
2018-Oct-15 09:59N 28°31' W 016°06'3 6.2
2018-Oct-15 09:30N 28°30' W 016°09'2 4.9
2018-Oct-15 09:03N 28°29' W 016°11'0 4.1
2018-Oct-15 09:00N 28°29' W 016°11'2 4.1
2018-Oct-15 08:30N 28°28' W 016°13'1 2.4
2018-Oct-15 08:03N 28°28' W 016°15'0 0.1
2018-Oct-15 07:57N 28°28' W 016°15'0 0.0
2018-Oct-15 07:30N 28°28' W 016°15'0 0.0
2018-Oct-15 07:03N 28°28' W 016°15'0 0.0
2018-Oct-15 07:00N 28°28' W 016°15'0 0.0
2018-Oct-15 06:30N 28°28' W 016°15'0 0.0
2018-Oct-15 06:03N 28°28' W 016°15'0 0.0
2018-Oct-15 06:00N 28°28' W 016°15'0 0.0
2018-Oct-15 05:30N 28°28' W 016°15'0 0.0
2018-Oct-15 05:03N 28°28' W 016°15'0 0.0
2018-Oct-15 05:00N 28°28' W 016°15'0 0.0
2018-Oct-15 04:30N 28°28' W 016°15'0 0.0
2018-Oct-15 04:03N 28°28' W 016°15'0 0.0
2018-Oct-15 04:00N 28°28' W 016°15'0 0.0
2018-Oct-15 03:30N 28°28' W 016°15'0 0.0
2018-Oct-15 03:03N 28°28' W 016°15'0 0.2
2018-Oct-15 03:00N 28°28' W 016°15'0 0.0
2018-Oct-15 02:30N 28°28' W 016°15'0 0.0
2018-Oct-15 02:03N 28°28' W 016°15'0 0.0
2018-Oct-15 02:00N 28°28' W 016°15'0 0.0
2018-Oct-15 01:30N 28°28' W 016°15'0 0.0
2018-Oct-15 01:03N 28°28' W 016°15'0 0.0
2018-Oct-15 01:00N 28°28' W 016°15'0 0.0
2018-Oct-15 00:30N 28°28' W 016°15'0 0.0
2018-Oct-15 00:03N 28°28' W 016°15'0 0.0
2018-Oct-15 00:00N 28°28' W 016°15'0 0.0
2018-Oct-14 23:30N 28°28' W 016°15'0 0.0
2018-Oct-14 23:00N 28°28' W 016°15'0 0.0
2018-Oct-14 22:30N 28°28' W 016°15'0 0.0
2018-Oct-14 22:03N 28°28' W 016°15'0 0.0
2018-Oct-14 22:00N 28°28' W 016°15'0 0.0
2018-Oct-14 21:30N 28°28' W 016°15'0 0.0
2018-Oct-14 21:03N 28°28' W 016°15'0 0.0
2018-Oct-14 21:00N 28°28' W 016°15'0 0.0
2018-Oct-14 20:30N 28°28' W 016°15'0 0.0
2018-Oct-14 20:03N 28°28' W 016°15'0 0.0
2018-Oct-14 20:00N 28°28' W 016°15'0 0.0
2018-Oct-14 19:30N 28°28' W 016°15'0 0.0
2018-Oct-14 19:03N 28°28' W 016°15'0 0.0
2018-Oct-14 19:00N 28°28' W 016°15'0 0.0
2018-Oct-14 18:30N 28°28' W 016°15'0 0.0
2018-Oct-14 18:03N 28°28' W 016°15'0 0.0
2018-Oct-14 18:00N 28°28' W 016°15'0 0.0
2018-Oct-14 17:30N 28°28' W 016°15'0 0.0
2018-Oct-14 17:03N 28°28' W 016°15'0 0.0
2018-Oct-14 17:00N 28°28' W 016°15'0 0.0
2018-Oct-14 16:30N 28°28' W 016°15'0 0.0
2018-Oct-14 16:03N 28°28' W 016°15'0 0.0
2018-Oct-14 16:00N 28°28' W 016°15'0 0.0
2018-Oct-14 15:30N 28°28' W 016°15'0 0.0
2018-Oct-14 15:03N 28°28' W 016°15'0 0.0
2018-Oct-14 15:00N 28°28' W 016°15'0 0.0
2018-Oct-14 14:03N 28°28' W 016°15'0 0.0
2018-Oct-14 13:57N 28°28' W 016°15'0 0.0
2018-Oct-14 13:30N 28°28' W 016°15'0 0.0
2018-Oct-14 13:03N 28°28' W 016°15'0 0.0
2018-Oct-14 13:00N 28°28' W 016°15'0 0.0
2018-Oct-14 12:30N 28°28' W 016°15'0 0.0
2018-Oct-14 12:00N 28°28' W 016°15'0 0.0
2018-Oct-14 11:30N 28°28' W 016°15'0 0.0
2018-Oct-14 11:03N 28°28' W 016°15'0 0.0
2018-Oct-14 11:00N 28°28' W 016°15'0 0.0
2018-Oct-14 10:30N 28°28' W 016°15'0 0.0
2018-Oct-14 10:03N 28°28' W 016°15'0 0.0
2018-Oct-14 10:00N 28°28' W 016°15'0 0.0
2018-Oct-14 09:30N 28°28' W 016°15'0 0.0
2018-Oct-14 09:03N 28°28' W 016°15'0 0.0
2018-Oct-14 09:00N 28°28' W 016°15'0 0.0
2018-Oct-14 08:30N 28°28' W 016°15'0 0.0
2018-Oct-14 08:03N 28°28' W 016°15'0 0.0
2018-Oct-14 07:30N 28°28' W 016°15'0 0.0
2018-Oct-14 07:03N 28°28' W 016°15'0 0.0
2018-Oct-14 07:00N 28°28' W 016°15'0 0.0
2018-Oct-14 06:30N 28°28' W 016°15'0 0.0
2018-Oct-14 06:03N 28°28' W 016°15'0 0.0
2018-Oct-14 06:00N 28°28' W 016°15'0 0.0
2018-Oct-14 05:30N 28°28' W 016°15'0 0.0
2018-Oct-14 05:03N 28°28' W 016°15'0 0.0
2018-Oct-14 05:00N 28°28' W 016°15'0 0.0
2018-Oct-14 04:30N 28°28' W 016°15'0 0.0
2018-Oct-14 04:03N 28°28' W 016°15'0 0.0
2018-Oct-14 04:00N 28°28' W 016°15'0 0.0
2018-Oct-14 03:30N 28°28' W 016°15'0 0.0
2018-Oct-14 03:03N 28°28' W 016°15'0 0.0
2018-Oct-14 03:00N 28°28' W 016°15'0 0.0
2018-Oct-14 02:30N 28°28' W 016°15'0 0.0
2018-Oct-14 02:03N 28°28' W 016°15'0 0.0
2018-Oct-14 02:00N 28°28' W 016°15'0 0.0
2018-Oct-14 01:30N 28°28' W 016°15'0 0.0
2018-Oct-14 01:03N 28°28' W 016°15'0 0.0
2018-Oct-14 01:00N 28°28' W 016°15'0 0.0
2018-Oct-14 00:30N 28°28' W 016°15'0 0.0
2018-Oct-14 00:03N 28°28' W 016°15'0 0.0
2018-Oct-14 00:00N 28°28' W 016°15'0 0.0
2018-Oct-13 23:30N 28°28' W 016°15'0 0.0
2018-Oct-13 23:03N 28°28' W 016°15'0 0.0
2018-Oct-13 23:00N 28°28' W 016°15'0 0.0
2018-Oct-13 22:30N 28°28' W 016°15'0 0.0
2018-Oct-13 22:03N 28°28' W 016°15'0 0.0
2018-Oct-13 22:00N 28°28' W 016°15'0 0.0
2018-Oct-13 21:30N 28°28' W 016°15'0 0.0
2018-Oct-13 21:03N 28°28' W 016°15'0 0.0
2018-Oct-13 21:00N 28°28' W 016°15'0 0.0
2018-Oct-13 20:30N 28°28' W 016°15'0 0.0
2018-Oct-13 20:03N 28°28' W 016°15'0 0.0
2018-Oct-13 20:00N 28°28' W 016°15'0 0.0
2018-Oct-13 19:30N 28°28' W 016°15'0 0.0
2018-Oct-13 19:03N 28°28' W 016°15'0 0.2
2018-Oct-13 19:00N 28°28' W 016°15'0 0.0
2018-Oct-13 18:30N 28°28' W 016°15'0 0.0
2018-Oct-13 18:03N 28°28' W 016°15'0 0.0
2018-Oct-13 18:00N 28°28' W 016°15'0 0.0
2018-Oct-13 17:30N 28°28' W 016°15'0 0.0
2018-Oct-13 17:03N 28°28' W 016°15'0 0.0
2018-Oct-13 17:00N 28°28' W 016°15'0 0.0
2018-Oct-13 16:30N 28°28' W 016°15'0 0.0
2018-Oct-13 16:03N 28°28' W 016°15'0 0.0
2018-Oct-13 16:00N 28°28' W 016°15'0 0.0
2018-Oct-13 15:30N 28°28' W 016°15'0 0.0
2018-Oct-13 15:03N 28°28' W 016°15'0 0.0
2018-Oct-13 15:00N 28°28' W 016°15'0 0.0
2018-Oct-13 14:30N 28°28' W 016°15'0 0.0
2018-Oct-13 14:00N 28°28' W 016°15'0 0.0
2018-Oct-13 13:30N 28°28' W 016°15'0 0.0
2018-Oct-13 13:03N 28°28' W 016°15'0 0.0
2018-Oct-13 13:00N 28°28' W 016°15'0 0.0
2018-Oct-13 12:30N 28°28' W 016°15'0 0.0
2018-Oct-13 12:03N 28°28' W 016°15'0 0.0
2018-Oct-13 12:00N 28°28' W 016°15'0 0.0
2018-Oct-13 11:30N 28°28' W 016°15'0 0.0
2018-Oct-13 11:03N 28°28' W 016°15'0 0.0
2018-Oct-13 11:00N 28°28' W 016°15'0 0.0
2018-Oct-13 10:30N 28°28' W 016°15'0 0.0
2018-Oct-13 10:03N 28°28' W 016°15'0 0.0
2018-Oct-13 10:00N 28°28' W 016°15'0 0.0
2018-Oct-13 09:30N 28°28' W 016°15'0 0.0
2018-Oct-13 09:03N 28°28' W 016°15'0 0.0
2018-Oct-13 09:00N 28°28' W 016°15'0 0.0
2018-Oct-13 08:30N 28°28' W 016°15'0 0.0
2018-Oct-13 08:03N 28°28' W 016°15'0 0.0
2018-Oct-13 08:00N 28°28' W 016°15'0 0.0
2018-Oct-13 07:30N 28°28' W 016°15'0 0.0
2018-Oct-13 07:03N 28°28' W 016°15'0 0.0
2018-Oct-13 07:00N 28°28' W 016°15'0 0.0
2018-Oct-13 06:27N 28°28' W 016°15'0 0.0
2018-Oct-13 06:03N 28°28' W 016°15'0 0.0
2018-Oct-13 06:00N 28°28' W 016°15'0 0.0
2018-Oct-13 05:30N 28°28' W 016°15'0 0.0
2018-Oct-13 05:03N 28°28' W 016°15'0 0.0
2018-Oct-13 05:00N 28°28' W 016°15'0 0.0
2018-Oct-13 04:30N 28°28' W 016°15'0 0.0
2018-Oct-13 04:03N 28°28' W 016°15'0 0.0
2018-Oct-13 04:00N 28°28' W 016°15'0 0.0
2018-Oct-13 03:30N 28°28' W 016°15'0 0.0
2018-Oct-13 03:03N 28°28' W 016°15'0 0.2
2018-Oct-13 03:00N 28°28' W 016°15'0 0.0
2018-Oct-13 02:30N 28°28' W 016°15'0 0.0
2018-Oct-13 02:03N 28°28' W 016°15'0 0.0
2018-Oct-13 02:00N 28°28' W 016°15'0 0.0
2018-Oct-13 01:30N 28°28' W 016°15'0 0.0
2018-Oct-13 01:03N 28°28' W 016°15'0 0.0
2018-Oct-13 01:00N 28°28' W 016°15'0 0.0
2018-Oct-13 00:30N 28°28' W 016°15'0 0.0
2018-Oct-13 00:03N 28°28' W 016°15'0 0.0
2018-Oct-13 00:00N 28°28' W 016°15'0 0.0
2018-Oct-12 23:30N 28°28' W 016°15'0 0.0
2018-Oct-12 23:03N 28°28' W 016°15'0 0.0
2018-Oct-12 23:00N 28°28' W 016°15'0 0.0
2018-Oct-12 22:30N 28°28' W 016°15'0 0.0
2018-Oct-12 22:03N 28°28' W 016°15'0 0.0
2018-Oct-12 22:00N 28°28' W 016°15'0 0.0
2018-Oct-12 21:30N 28°28' W 016°15'0 0.0
2018-Oct-12 21:03N 28°28' W 016°15'0 0.2
2018-Oct-12 21:00N 28°28' W 016°15'0 0.0
2018-Oct-12 20:30N 28°28' W 016°15'0 0.0
2018-Oct-12 20:03N 28°28' W 016°15'0 0.0
2018-Oct-12 20:00N 28°28' W 016°15'0 0.0
2018-Oct-12 19:30N 28°28' W 016°15'0 0.0
2018-Oct-12 19:03N 28°28' W 016°15'0 0.0
2018-Oct-12 19:00N 28°28' W 016°15'0 0.0
2018-Oct-12 18:30N 28°28' W 016°15'0 0.0
2018-Oct-12 18:03N 28°28' W 016°15'0 0.0
2018-Oct-12 18:00N 28°28' W 016°15'0 0.0
2018-Oct-12 17:30N 28°28' W 016°15'0 0.0
2018-Oct-12 17:03N 28°28' W 016°15'0 0.0
2018-Oct-12 17:00N 28°28' W 016°15'0 0.0
2018-Oct-12 16:30N 28°28' W 016°15'0 0.0
2018-Oct-12 16:03N 28°28' W 016°15'0 0.0
2018-Oct-12 16:00N 28°28' W 016°15'0 0.0
2018-Oct-12 15:30N 28°28' W 016°15'0 0.0
2018-Oct-12 15:03N 28°28' W 016°15'0 0.0
2018-Oct-12 15:00N 28°28' W 016°15'0 0.0
2018-Oct-12 14:03N 28°28' W 016°15'0 0.0
2018-Oct-12 14:00N 28°28' W 016°15'0 0.0
2018-Oct-12 13:30N 28°28' W 016°15'0 0.0
2018-Oct-12 13:03N 28°28' W 016°15'0 0.0
2018-Oct-12 13:00N 28°28' W 016°15'0 0.0
2018-Oct-12 12:30N 28°28' W 016°15'0 0.0
2018-Oct-12 12:03N 28°28' W 016°15'0 0.0
2018-Oct-12 12:00N 28°28' W 016°15'0 0.0
2018-Oct-12 11:30N 28°28' W 016°15'0 0.0
2018-Oct-12 11:03N 28°28' W 016°15'0 0.0
2018-Oct-12 11:00N 28°28' W 016°15'0 0.0
2018-Oct-12 10:30N 28°28' W 016°15'0 0.0
2018-Oct-12 10:03N 28°28' W 016°15'0 0.0
2018-Oct-12 10:00N 28°28' W 016°15'0 0.0
2018-Oct-12 09:30N 28°28' W 016°15'0 0.0
2018-Oct-12 09:03N 28°28' W 016°15'0 0.0
2018-Oct-12 09:00N 28°28' W 016°15'0 0.0
2018-Oct-12 08:30N 28°28' W 016°15'0 0.0
2018-Oct-12 08:03N 28°28' W 016°15'0 0.0
2018-Oct-12 08:00N 28°28' W 016°15'0 0.0
2018-Oct-12 07:30N 28°28' W 016°15'0 0.0
2018-Oct-12 07:03N 28°28' W 016°15'0 0.0
2018-Oct-12 07:00N 28°28' W 016°15'0 0.0
2018-Oct-12 06:30N 28°28' W 016°15'0 0.0
2018-Oct-12 06:03N 28°28' W 016°15'0 0.0
2018-Oct-12 06:00N 28°28' W 016°15'0 0.0
2018-Oct-12 05:30N 28°28' W 016°15'0 0.0
2018-Oct-12 05:03N 28°28' W 016°15'0 0.3
2018-Oct-12 05:00N 28°28' W 016°15'0 0.0
2018-Oct-12 04:30N 28°28' W 016°15'0 0.0
2018-Oct-12 04:03N 28°28' W 016°15'0 0.0
2018-Oct-12 04:00N 28°28' W 016°15'0 0.0
2018-Oct-12 03:30N 28°28' W 016°15'0 0.0
2018-Oct-12 03:03N 28°28' W 016°15'0 0.0
2018-Oct-12 03:00N 28°28' W 016°15'0 0.0
2018-Oct-12 02:30N 28°28' W 016°15'0 0.0
2018-Oct-12 02:00N 28°28' W 016°15'0 0.0
2018-Oct-12 01:30N 28°28' W 016°15'0 0.0
2018-Oct-12 01:00N 28°28' W 016°15'0 0.0
2018-Oct-12 00:30N 28°28' W 016°15'0 0.0
2018-Oct-12 00:03N 28°28' W 016°15'0 0.0
2018-Oct-12 00:00N 28°28' W 016°15'0 0.0
2018-Oct-11 23:30N 28°28' W 016°15'0 0.0
2018-Oct-11 23:03N 28°28' W 016°15'0 0.0
2018-Oct-11 23:00N 28°28' W 016°15'0 0.0
2018-Oct-11 22:30N 28°28' W 016°15'0 0.0
2018-Oct-11 22:03N 28°28' W 016°15'0 0.0
2018-Oct-11 22:00N 28°28' W 016°15'0 0.0
2018-Oct-11 21:30N 28°28' W 016°15'0 0.0
2018-Oct-11 21:03N 28°28' W 016°15'0 0.0
2018-Oct-11 21:00N 28°28' W 016°15'0 0.0
2018-Oct-11 20:30N 28°28' W 016°15'0 0.0
2018-Oct-11 20:03N 28°28' W 016°15'0 0.0
2018-Oct-11 20:00N 28°28' W 016°15'0 0.0
2018-Oct-11 19:30N 28°28' W 016°15'0 0.0
2018-Oct-11 19:03N 28°28' W 016°15'0 0.0
2018-Oct-11 19:00N 28°28' W 016°15'0 0.0
2018-Oct-11 18:30N 28°28' W 016°15'0 0.0
2018-Oct-11 18:03N 28°28' W 016°15'0 0.0
2018-Oct-11 18:00N 28°28' W 016°15'0 0.0
2018-Oct-11 17:30N 28°28' W 016°15'0 0.0
2018-Oct-11 17:03N 28°28' W 016°15'0 0.0
2018-Oct-11 17:00N 28°28' W 016°15'0 0.0
2018-Oct-11 16:30N 28°28' W 016°15'0 0.0
2018-Oct-11 16:03N 28°28' W 016°15'0 0.0
2018-Oct-11 16:00N 28°28' W 016°15'0 0.0
2018-Oct-11 15:27N 28°28' W 016°15'0 0.0
2018-Oct-11 15:03N 28°28' W 016°15'0 0.0
2018-Oct-11 15:00N 28°28' W 016°15'0 0.0
2018-Oct-11 14:30N 28°28' W 016°15'0 0.0
2018-Oct-11 13:30N 28°28' W 016°15'0 0.0
2018-Oct-11 13:03N 28°28' W 016°15'0 0.0
2018-Oct-11 13:00N 28°28' W 016°15'0 0.0
2018-Oct-11 12:30N 28°28' W 016°15'0 0.0
2018-Oct-11 12:03N 28°28' W 016°15'0 0.0
2018-Oct-11 12:00N 28°28' W 016°15'0 0.0
2018-Oct-11 11:30N 28°28' W 016°15'0 0.0
2018-Oct-11 11:03N 28°28' W 016°15'0 0.0
2018-Oct-11 11:00N 28°28' W 016°15'0 0.0
2018-Oct-11 10:30N 28°28' W 016°15'0 0.0
2018-Oct-11 10:03N 28°28' W 016°15'0 0.0
2018-Oct-11 10:00N 28°28' W 016°15'0 0.0
2018-Oct-11 09:27N 28°28' W 016°15'0 0.0
2018-Oct-11 09:03N 28°28' W 016°15'0 0.0
2018-Oct-11 09:00N 28°28' W 016°15'0 0.0
2018-Oct-11 08:30N 28°28' W 016°15'0 0.0
2018-Oct-11 08:03N 28°28' W 016°15'0 0.0
2018-Oct-11 08:00N 28°28' W 016°15'0 0.0
2018-Oct-11 07:30N 28°28' W 016°15'0 0.0
2018-Oct-11 07:03N 28°28' W 016°15'0 0.0
2018-Oct-11 07:00N 28°28' W 016°15'0 0.0
2018-Oct-11 06:30N 28°28' W 016°15'0 0.0
2018-Oct-11 06:03N 28°28' W 016°15'0 0.0
2018-Oct-11 06:00N 28°28' W 016°15'0 0.0
2018-Oct-11 05:30N 28°28' W 016°15'0 0.0
2018-Oct-11 05:03N 28°28' W 016°15'0 0.2
2018-Oct-11 05:00N 28°28' W 016°15'0 0.0
2018-Oct-11 04:30N 28°28' W 016°15'0 0.0
2018-Oct-11 04:03N 28°28' W 016°15'0 0.0
2018-Oct-11 04:00N 28°28' W 016°15'0 0.0
2018-Oct-11 03:30N 28°28' W 016°15'0 0.0
2018-Oct-11 03:03N 28°28' W 016°15'0 0.2
2018-Oct-11 03:00N 28°28' W 016°15'0 0.0
2018-Oct-11 02:30N 28°28' W 016°15'0 0.0
2018-Oct-11 02:03N 28°28' W 016°15'0 0.0
2018-Oct-11 02:00N 28°28' W 016°15'0 0.0
2018-Oct-11 01:30N 28°28' W 016°15'0 0.0
2018-Oct-11 01:03N 28°28' W 016°15'0 0.0
2018-Oct-11 01:00N 28°28' W 016°15'0 0.0
2018-Oct-11 00:30N 28°28' W 016°15'0 0.0
2018-Oct-11 00:03N 28°28' W 016°15'0 0.0
2018-Oct-11 00:00N 28°28' W 016°15'0 0.0
2018-Oct-10 23:30N 28°28' W 016°15'0 0.0
2018-Oct-10 23:03N 28°28' W 016°15'0 0.0
2018-Oct-10 23:00N 28°28' W 016°15'0 0.0
2018-Oct-10 22:30N 28°28' W 016°15'0 0.0
2018-Oct-10 22:03N 28°28' W 016°15'0 0.0
2018-Oct-10 22:00N 28°28' W 016°15'0 0.0
2018-Oct-10 21:30N 28°28' W 016°15'0 0.0
2018-Oct-10 21:03N 28°28' W 016°15'0 0.0
2018-Oct-10 21:00N 28°28' W 016°15'0 0.0
2018-Oct-10 20:30N 28°28' W 016°15'0 0.0
2018-Oct-10 20:03N 28°28' W 016°15'0 0.0
2018-Oct-10 20:00N 28°28' W 016°15'0 0.0
2018-Oct-10 19:30N 28°28' W 016°15'0 0.0
2018-Oct-10 19:03N 28°28' W 016°15'0 0.2
2018-Oct-10 19:00N 28°28' W 016°15'0 0.0
2018-Oct-10 18:30N 28°28' W 016°15'0 0.0
2018-Oct-10 18:03N 28°28' W 016°15'0 0.0
2018-Oct-10 18:00N 28°28' W 016°15'0 0.0
2018-Oct-10 17:30N 28°28' W 016°15'0 0.0
2018-Oct-10 17:03N 28°28' W 016°15'0 0.0
2018-Oct-10 17:00N 28°28' W 016°15'0 0.0
2018-Oct-10 16:30N 28°28' W 016°15'0 0.0
2018-Oct-10 16:03N 28°28' W 016°15'0 0.0
2018-Oct-10 16:00N 28°28' W 016°15'0 0.0
2018-Oct-10 15:30N 28°28' W 016°15'  

Dump ship's entire track history